Flugplatz Strausberg

Für EDAY sind keine METAR/TAF Berichte vorhanden.
Es werden die Flugwettermeldungen vom Flugplatz Berlin-Schönefeld International in 34 km Entfernung angezeigt.

Bericht für EDDB

vom 28.10. um 07:50 UTC

Wind 12 kt aus 200°

Sichtweite 10 km oder mehr

aufgebrochene Bewölkung in 4100 ft

Temperatur 10.0°C

Taupunkt 7.0°C

Luftfeuchtigkeit 82%

Luftdruck 1009 hPa

keine wesentliche Wetteränderung innerhalb den nächsten 2 Stunden zu erwarten

EDDB 280750Z 20012KT 9999 BKN041 10/07 Q1009 NOSIG

Prognose für EDDB

vom 28.10. um 05:00 UTC

Zwischen 06:00 UTC und 06:00 UTC

Wind 10 kt aus 190°

Sichtweite 10 km oder mehr

aufgebrochene Bewölkung in 2500 ft


Am 29.10. zwischen 03:00 UTC und 06:00 UTC zeitweise mit einer Wahrscheinlichkeit von 30%

Regen

aufgebrochene Bewölkung in 1200 ft

TAF EDDB 280500Z 2806/2906 19010KT 9999 BKN025 PROB30 TEMPO 2903/2906 RA BKN012
Impressum